sensor_id;sensor_type;location;lat;lon;timestamp;pressure;altitude;pressure_sealevel;temperature;humidity
40372;BME280;28564;53.346;-6.554;2023-02-15T00:01:05;101138.27;;;12.43;33.31
40372;BME280;28564;53.346;-6.554;2023-02-15T00:03:33;101116.34;;;12.90;33.48
40372;BME280;28564;53.346;-6.554;2023-02-15T00:06:00;101122.39;;;13.08;33.66
40372;BME280;28564;53.346;-6.554;2023-02-15T00:08:27;101124.95;;;12.85;33.87
40372;BME280;28564;53.346;-6.554;2023-02-15T00:11:03;101108.77;;;12.81;34.10
40372;BME280;28564;53.346;-6.554;2023-02-15T00:13:30;101108.53;;;12.99;34.36
40372;BME280;28564;53.346;-6.554;2023-02-15T00:16:01;101104.44;;;13.00;34.54
40372;BME280;28564;53.346;-6.554;2023-02-15T00:18:28;101102.08;;;13.00;34.74
40372;BME280;28564;53.346;-6.554;2023-02-15T00:20:56;101096.31;;;13.01;34.90
40372;BME280;28564;53.346;-6.554;2023-02-15T00:23:23;101091.16;;;12.77;35.09
40372;BME280;28564;53.346;-6.554;2023-02-15T00:25:50;101094.23;;;12.97;35.26
40372;BME280;28564;53.346;-6.554;2023-02-15T00:28:17;101093.27;;;12.97;35.30
40372;BME280;28564;53.346;-6.554;2023-02-15T00:30:44;101088.70;;;12.95;35.49
40372;BME280;28564;53.346;-6.554;2023-02-15T00:33:12;101099.80;;;12.73;35.73
40372;BME280;28564;53.346;-6.554;2023-02-15T00:35:38;101090.26;;;12.92;35.97
40372;BME280;28564;53.346;-6.554;2023-02-15T00:38:06;101086.82;;;12.70;36.28
40372;BME280;28564;53.346;-6.554;2023-02-15T00:40:33;101090.86;;;12.70;36.60
40372;BME280;28564;53.346;-6.554;2023-02-15T00:43:04;101081.03;;;12.92;36.82
40372;BME280;28564;53.346;-6.554;2023-02-15T00:45:31;101069.29;;;12.92;37.03
40372;BME280;28564;53.346;-6.554;2023-02-15T00:47:58;101060.65;;;12.88;37.32
40372;BME280;28564;53.346;-6.554;2023-02-15T00:50:26;101055.72;;;12.61;37.52
40372;BME280;28564;53.346;-6.554;2023-02-15T00:52:53;101057.40;;;12.81;37.75
40372;BME280;28564;53.346;-6.554;2023-02-15T00:55:21;101045.84;;;12.62;37.91
40372;BME280;28564;53.346;-6.554;2023-02-15T00:57:48;101043.46;;;13.08;38.05
40372;BME280;28564;53.346;-6.554;2023-02-15T01:00:16;101037.68;;;12.76;38.20
40372;BME280;28564;53.346;-6.554;2023-02-15T01:02:43;101030.35;;;12.78;38.41
40372;BME280;28564;53.346;-6.554;2023-02-15T01:05:10;101027.96;;;12.57;38.51
40372;BME280;28564;53.346;-6.554;2023-02-15T01:07:37;101016.71;;;12.82;38.59
40372;BME280;28564;53.346;-6.554;2023-02-15T01:10:06;101016.22;;;12.82;38.67
40372;BME280;28564;53.346;-6.554;2023-02-15T01:12:33;101017.04;;;12.83;38.76
40372;BME280;28564;53.346;-6.554;2023-02-15T01:15:00;101003.85;;;12.80;38.85
40372;BME280;28564;53.346;-6.554;2023-02-15T01:17:27;100998.73;;;12.77;38.97
40372;BME280;28564;53.346;-6.554;2023-02-15T01:19:59;100993.76;;;12.79;39.02
40372;BME280;28564;53.346;-6.554;2023-02-15T01:22:26;100987.93;;;12.80;39.06
40372;BME280;28564;53.346;-6.554;2023-02-15T01:24:53;100990.39;;;12.83;39.07
40372;BME280;28564;53.346;-6.554;2023-02-15T01:27:20;100991.82;;;12.62;39.11
40372;BME280;28564;53.346;-6.554;2023-02-15T01:29:48;100995.83;;;12.85;39.16
40372;BME280;28564;53.346;-6.554;2023-02-15T01:32:15;100987.37;;;12.80;39.28
40372;BME280;28564;53.346;-6.554;2023-02-15T01:34:42;100987.45;;;12.61;39.45
40372;BME280;28564;53.346;-6.554;2023-02-15T01:37:10;100978.58;;;12.83;39.73
40372;BME280;28564;53.346;-6.554;2023-02-15T01:39:37;100971.78;;;12.76;39.98
40372;BME280;28564;53.346;-6.554;2023-02-15T01:42:05;100970.75;;;12.76;40.23
40372;BME280;28564;53.346;-6.554;2023-02-15T01:44:51;100954.93;;;12.72;40.44
40372;BME280;28564;53.346;-6.554;2023-02-15T01:47:23;100943.29;;;12.47;40.61
40372;BME280;28564;53.346;-6.554;2023-02-15T01:50:00;100932.82;;;12.71;40.86
40372;BME280;28564;53.346;-6.554;2023-02-15T01:52:29;100927.66;;;12.69;41.09
40372;BME280;28564;53.346;-6.554;2023-02-15T01:54:57;100919.01;;;12.76;41.25
40372;BME280;28564;53.346;-6.554;2023-02-15T01:57:25;100915.66;;;12.73;41.45
40372;BME280;28564;53.346;-6.554;2023-02-15T01:59:57;100909.08;;;12.46;41.68
40372;BME280;28564;53.346;-6.554;2023-02-15T02:02:27;100906.56;;;12.65;41.93
40372;BME280;28564;53.346;-6.554;2023-02-15T02:04:58;100907.93;;;12.60;42.13
40372;BME280;28564;53.346;-6.554;2023-02-15T02:07:29;100901.04;;;12.58;42.45
40372;BME280;28564;53.346;-6.554;2023-02-15T02:09:57;100899.56;;;12.56;42.77
40372;BME280;28564;53.346;-6.554;2023-02-15T02:12:25;100890.99;;;12.52;42.99
40372;BME280;28564;53.346;-6.554;2023-02-15T02:14:53;100893.77;;;12.50;43.15
40372;BME280;28564;53.346;-6.554;2023-02-15T02:17:27;100891.09;;;12.50;43.28
40372;BME280;28564;53.346;-6.554;2023-02-15T02:20:15;100890.99;;;12.48;43.44
40372;BME280;28564;53.346;-6.554;2023-02-15T02:23:02;100897.77;;;12.48;43.53
40372;BME280;28564;53.346;-6.554;2023-02-15T02:25:50;100882.16;;;12.27;43.60
40372;BME280;28564;53.346;-6.554;2023-02-15T02:28:43;100881.36;;;12.50;43.68
40372;BME280;28564;53.346;-6.554;2023-02-15T02:33:40;100878.14;;;12.87;43.98
40372;BME280;28564;53.346;-6.554;2023-02-15T02:36:17;100873.00;;;12.28;43.91
40372;BME280;28564;53.346;-6.554;2023-02-15T02:38:57;100876.50;;;12.57;43.79
40372;BME280;28564;53.346;-6.554;2023-02-15T02:41:35;100867.70;;;12.60;43.83
40372;BME280;28564;53.346;-6.554;2023-02-15T02:44:12;100865.02;;;12.59;43.94
40372;BME280;28564;53.346;-6.554;2023-02-15T02:46:47;100868.78;;;12.58;44.09
40372;BME280;28564;53.346;-6.554;2023-02-15T02:49:15;100863.45;;;12.58;44.22
40372;BME280;28564;53.346;-6.554;2023-02-15T02:51:43;100848.32;;;12.33;44.37
40372;BME280;28564;53.346;-6.554;2023-02-15T02:54:10;100842.56;;;12.49;44.52
40372;BME280;28564;53.346;-6.554;2023-02-15T02:56:40;100829.64;;;12.46;44.68
40372;BME280;28564;53.346;-6.554;2023-02-15T02:59:12;100825.82;;;12.42;44.86
40372;BME280;28564;53.346;-6.554;2023-02-15T03:01:45;100817.87;;;12.38;45.00
40372;BME280;28564;53.346;-6.554;2023-02-15T03:04:17;100817.14;;;12.30;45.13
40372;BME280;28564;53.346;-6.554;2023-02-15T03:06:49;100829.71;;;12.35;45.13
40372;BME280;28564;53.346;-6.554;2023-02-15T03:09:25;100826.33;;;12.30;45.20
40372;BME280;28564;53.346;-6.554;2023-02-15T03:11:54;100822.89;;;12.35;45.21
40372;BME280;28564;53.346;-6.554;2023-02-15T03:14:21;100819.46;;;12.40;45.23
40372;BME280;28564;53.346;-6.554;2023-02-15T03:16:51;100804.59;;;12.41;45.26
40372;BME280;28564;53.346;-6.554;2023-02-15T03:19:23;100793.25;;;12.44;45.23
40372;BME280;28564;53.346;-6.554;2023-02-15T03:21:57;100789.54;;;12.45;45.24
40372;BME280;28564;53.346;-6.554;2023-02-15T03:24:31;100777.71;;;12.40;45.31
40372;BME280;28564;53.346;-6.554;2023-02-15T03:26:59;100773.05;;;12.46;45.23
40372;BME280;28564;53.346;-6.554;2023-02-15T03:29:31;100766.08;;;12.52;45.17
40372;BME280;28564;53.346;-6.554;2023-02-15T03:32:00;100774.26;;;12.52;45.16
40372;BME280;28564;53.346;-6.554;2023-02-15T03:34:31;100771.49;;;12.59;45.10
40372;BME280;28564;53.346;-6.554;2023-02-15T03:37:05;100771.06;;;12.61;45.07
40372;BME280;28564;53.346;-6.554;2023-02-15T03:39:38;100775.81;;;12.61;45.10
40372;BME280;28564;53.346;-6.554;2023-02-15T03:42:11;100775.21;;;12.63;45.11
40372;BME280;28564;53.346;-6.554;2023-02-15T03:44:49;100770.04;;;12.71;45.05
40372;BME280;28564;53.346;-6.554;2023-02-15T03:47:20;100776.49;;;12.71;45.12
40372;BME280;28564;53.346;-6.554;2023-02-15T03:49:53;100778.11;;;12.63;45.23
40372;BME280;28564;53.346;-6.554;2023-02-15T03:52:24;100782.82;;;12.57;45.39
40372;BME280;28564;53.346;-6.554;2023-02-15T03:54:53;100780.29;;;12.57;45.48
40372;BME280;28564;53.346;-6.554;2023-02-15T03:57:24;100786.28;;;12.54;45.57
40372;BME280;28564;53.346;-6.554;2023-02-15T03:59:51;100784.33;;;12.56;45.57
40372;BME280;28564;53.346;-6.554;2023-02-15T04:02:22;100769.52;;;12.59;45.55
40372;BME280;28564;53.346;-6.554;2023-02-15T04:04:51;100762.65;;;12.61;45.63
40372;BME280;28564;53.346;-6.554;2023-02-15T04:07:18;100778.29;;;12.64;45.78
40372;BME280;28564;53.346;-6.554;2023-02-15T04:09:45;100781.61;;;12.69;46.00
40372;BME280;28564;53.346;-6.554;2023-02-15T04:12:13;100772.49;;;12.72;46.20
40372;BME280;28564;53.346;-6.554;2023-02-15T04:14:40;100759.51;;;12.70;46.50
40372;BME280;28564;53.346;-6.554;2023-02-15T04:17:07;100761.47;;;12.45;46.68
40372;BME280;28564;53.346;-6.554;2023-02-15T04:19:35;100752.41;;;12.70;46.78
40372;BME280;28564;53.346;-6.554;2023-02-15T04:22:02;100743.80;;;12.71;46.89
40372;BME280;28564;53.346;-6.554;2023-02-15T04:24:29;100730.33;;;12.73;47.01
40372;BME280;28564;53.346;-6.554;2023-02-15T04:26:57;100716.88;;;12.81;47.06
40372;BME280;28564;53.346;-6.554;2023-02-15T04:29:25;100718.31;;;12.84;47.15
40372;BME280;28564;53.346;-6.554;2023-02-15T04:31:55;100718.98;;;12.80;47.32
40372;BME280;28564;53.346;-6.554;2023-02-15T04:34:23;100717.06;;;12.87;47.35
40372;BME280;28564;53.346;-6.554;2023-02-15T04:36:50;100711.67;;;12.91;47.43
40372;BME280;28564;53.346;-6.554;2023-02-15T04:39:18;100722.69;;;12.97;47.47
40372;BME280;28564;53.346;-6.554;2023-02-15T04:41:45;100732.09;;;12.81;47.67
40372;BME280;28564;53.346;-6.554;2023-02-15T04:44:13;100734.98;;;12.88;47.83
40372;BME280;28564;53.346;-6.554;2023-02-15T04:46:40;100742.62;;;12.82;48.09
40372;BME280;28564;53.346;-6.554;2023-02-15T04:49:08;100824.94;;;12.67;50.02
40372;BME280;28564;53.346;-6.554;2023-02-15T04:51:36;100833.43;;;12.28;49.83
40372;BME280;28564;53.346;-6.554;2023-02-15T04:54:03;100838.15;;;11.67;50.22
40372;BME280;28564;53.346;-6.554;2023-02-15T04:56:30;100837.26;;;11.20;51.42
40372;BME280;28564;53.346;-6.554;2023-02-15T04:58:57;100854.11;;;10.84;52.08
40372;BME280;28564;53.346;-6.554;2023-02-15T05:01:24;100850.97;;;10.68;52.76
40372;BME280;28564;53.346;-6.554;2023-02-15T05:03:52;100858.80;;;10.35;53.61
40372;BME280;28564;53.346;-6.554;2023-02-15T05:06:20;100861.39;;;10.11;54.15
40372;BME280;28564;53.346;-6.554;2023-02-15T05:08:47;100849.89;;;10.13;54.71
40372;BME280;28564;53.346;-6.554;2023-02-15T05:11:14;100856.92;;;9.79;54.85
40372;BME280;28564;53.346;-6.554;2023-02-15T05:13:42;100860.24;;;9.90;55.27
40372;BME280;28564;53.346;-6.554;2023-02-15T05:16:09;100863.85;;;9.59;55.62
40372;BME280;28564;53.346;-6.554;2023-02-15T05:18:36;100853.18;;;10.03;55.69
40372;BME280;28564;53.346;-6.554;2023-02-15T05:21:04;100865.49;;;9.46;56.05
40372;BME280;28564;53.346;-6.554;2023-02-15T05:23:31;100869.97;;;9.46;55.78
40372;BME280;28564;53.346;-6.554;2023-02-15T05:25:58;100881.65;;;9.87;55.82
40372;BME280;28564;53.346;-6.554;2023-02-15T05:28:27;100876.55;;;9.82;55.89
40372;BME280;28564;53.346;-6.554;2023-02-15T05:31:03;100870.36;;;9.49;56.07
40372;BME280;28564;53.346;-6.554;2023-02-15T05:33:31;100874.25;;;9.21;56.09
40372;BME280;28564;53.346;-6.554;2023-02-15T05:35:59;100871.89;;;9.66;56.28
40372;BME280;28564;53.346;-6.554;2023-02-15T05:38:26;100864.86;;;9.62;56.29
40372;BME280;28564;53.346;-6.554;2023-02-15T05:40:54;100869.83;;;9.61;56.40
40372;BME280;28564;53.346;-6.554;2023-02-15T05:43:21;100871.11;;;9.30;56.35
40372;BME280;28564;53.346;-6.554;2023-02-15T05:45:50;100881.62;;;9.29;56.61
40372;BME280;28564;53.346;-6.554;2023-02-15T05:48:19;100885.07;;;9.07;56.87
40372;BME280;28564;53.346;-6.554;2023-02-15T05:50:46;100882.15;;;9.11;57.17
40372;BME280;28564;53.346;-6.554;2023-02-15T05:53:13;100881.37;;;9.18;56.95
40372;BME280;28564;53.346;-6.554;2023-02-15T05:55:41;100886.93;;;9.46;56.92
40372;BME280;28564;53.346;-6.554;2023-02-15T05:58:08;100895.40;;;9.51;56.74
40372;BME280;28564;53.346;-6.554;2023-02-15T06:00:35;100895.18;;;9.27;56.83
40372;BME280;28564;53.346;-6.554;2023-02-15T06:03:03;100893.99;;;9.07;56.55
40372;BME280;28564;53.346;-6.554;2023-02-15T06:05:31;100898.87;;;9.54;56.51
40372;BME280;28564;53.346;-6.554;2023-02-15T06:07:58;100903.81;;;9.78;56.40
40372;BME280;28564;53.346;-6.554;2023-02-15T06:10:25;100906.78;;;9.35;56.22
40372;BME280;28564;53.346;-6.554;2023-02-15T06:12:53;100915.28;;;9.37;56.68
40372;BME280;28564;53.346;-6.554;2023-02-15T06:15:20;100917.71;;;9.88;56.62
40372;BME280;28564;53.346;-6.554;2023-02-15T06:17:47;100917.46;;;9.41;56.63
40372;BME280;28564;53.346;-6.554;2023-02-15T06:20:14;100935.23;;;9.66;56.55
40372;BME280;28564;53.346;-6.554;2023-02-15T06:22:42;100931.63;;;9.45;56.51
40372;BME280;28564;53.346;-6.554;2023-02-15T06:25:09;100929.71;;;9.47;56.38
40372;BME280;28564;53.346;-6.554;2023-02-15T06:27:36;100930.81;;;9.46;56.29
40372;BME280;28564;53.346;-6.554;2023-02-15T06:30:05;100928.63;;;9.48;56.59
40372;BME280;28564;53.346;-6.554;2023-02-15T06:32:32;100932.21;;;9.51;56.37
40372;BME280;28564;53.346;-6.554;2023-02-15T06:35:00;100936.31;;;9.52;56.27
40372;BME280;28564;53.346;-6.554;2023-02-15T06:37:27;100939.42;;;9.74;55.96
40372;BME280;28564;53.346;-6.554;2023-02-15T06:39:54;100936.55;;;9.47;56.15
40372;BME280;28564;53.346;-6.554;2023-02-15T06:42:22;100936.67;;;9.54;56.21
40372;BME280;28564;53.346;-6.554;2023-02-15T06:44:49;100942.53;;;9.55;56.02
40372;BME280;28564;53.346;-6.554;2023-02-15T06:47:16;100943.39;;;9.49;55.98
40372;BME280;28564;53.346;-6.554;2023-02-15T06:49:43;100942.70;;;9.49;56.14
40372;BME280;28564;53.346;-6.554;2023-02-15T06:52:11;100943.92;;;9.49;56.06
40372;BME280;28564;53.346;-6.554;2023-02-15T06:54:38;100946.90;;;9.49;56.04
40372;BME280;28564;53.346;-6.554;2023-02-15T06:57:05;100944.48;;;9.47;55.94
40372;BME280;28564;53.346;-6.554;2023-02-15T06:59:33;100946.70;;;9.46;55.98
40372;BME280;28564;53.346;-6.554;2023-02-15T07:02:00;100948.62;;;9.44;56.06
40372;BME280;28564;53.346;-6.554;2023-02-15T07:04:27;100948.11;;;9.44;56.04
40372;BME280;28564;53.346;-6.554;2023-02-15T07:06:54;100944.16;;;9.45;55.89
40372;BME280;28564;53.346;-6.554;2023-02-15T07:09:22;100942.50;;;9.39;55.81
40372;BME280;28564;53.346;-6.554;2023-02-15T07:11:50;100936.63;;;9.42;56.04
40372;BME280;28564;53.346;-6.554;2023-02-15T07:14:17;100930.65;;;9.42;56.02
40372;BME280;28564;53.346;-6.554;2023-02-15T07:16:45;100921.19;;;9.90;55.91
40372;BME280;28564;53.346;-6.554;2023-02-15T07:19:13;100914.38;;;9.39;55.78
40372;BME280;28564;53.346;-6.554;2023-02-15T07:21:40;100903.58;;;9.55;55.37
40372;BME280;28564;53.346;-6.554;2023-02-15T07:24:07;100902.38;;;9.48;55.39
40372;BME280;28564;53.346;-6.554;2023-02-15T07:26:34;100896.78;;;9.19;55.44
40372;BME280;28564;53.346;-6.554;2023-02-15T07:29:02;100895.24;;;9.17;55.77
40372;BME280;28564;53.346;-6.554;2023-02-15T07:31:29;100888.14;;;9.15;55.60
40372;BME280;28564;53.346;-6.554;2023-02-15T07:33:56;100882.12;;;9.14;55.75
40372;BME280;28564;53.346;-6.554;2023-02-15T07:36:24;100882.49;;;9.60;55.53
40372;BME280;28564;53.346;-6.554;2023-02-15T07:38:51;100883.60;;;9.33;55.69
40372;BME280;28564;53.346;-6.554;2023-02-15T07:41:18;100884.63;;;9.12;55.93
40372;BME280;28564;53.346;-6.554;2023-02-15T07:43:46;100891.40;;;9.17;55.76
40372;BME280;28564;53.346;-6.554;2023-02-15T07:46:15;100893.04;;;9.19;55.64
40372;BME280;28564;53.346;-6.554;2023-02-15T07:48:44;100896.81;;;9.29;55.52
40372;BME280;28564;53.346;-6.554;2023-02-15T07:51:11;100895.46;;;9.35;55.31
40372;BME280;28564;53.346;-6.554;2023-02-15T07:53:39;100897.10;;;9.90;55.39
40372;BME280;28564;53.346;-6.554;2023-02-15T07:56:10;100891.12;;;9.86;55.37
40372;BME280;28564;53.346;-6.554;2023-02-15T07:58:38;100896.72;;;9.35;55.43
40372;BME280;28564;53.346;-6.554;2023-02-15T08:01:05;100905.07;;;9.30;55.17
40372;BME280;28564;53.346;-6.554;2023-02-15T08:03:32;100901.28;;;9.25;55.27
40372;BME280;28564;53.346;-6.554;2023-02-15T08:05:59;100907.67;;;9.22;55.30
40372;BME280;28564;53.346;-6.554;2023-02-15T08:08:27;100918.29;;;9.42;55.29
40372;BME280;28564;53.346;-6.554;2023-02-15T08:10:57;100919.18;;;9.35;55.35
40372;BME280;28564;53.346;-6.554;2023-02-15T08:13:25;100924.60;;;9.32;55.25
40372;BME280;28564;53.346;-6.554;2023-02-15T08:15:52;100925.76;;;9.09;55.54
40372;BME280;28564;53.346;-6.554;2023-02-15T08:18:19;100927.58;;;9.56;55.40
40372;BME280;28564;53.346;-6.554;2023-02-15T08:20:49;100931.50;;;9.04;55.65
40372;BME280;28564;53.346;-6.554;2023-02-15T08:23:16;100938.44;;;9.29;55.81
40372;BME280;28564;53.346;-6.554;2023-02-15T08:25:44;100949.37;;;9.33;55.77
40372;BME280;28564;53.346;-6.554;2023-02-15T08:28:11;100950.90;;;9.10;55.24
40372;BME280;28564;53.346;-6.554;2023-02-15T08:30:38;100951.11;;;9.29;55.12
40372;BME280;28564;53.346;-6.554;2023-02-15T08:33:06;100951.11;;;9.21;55.18
40372;BME280;28564;53.346;-6.554;2023-02-15T08:35:34;100950.40;;;9.37;55.01
40372;BME280;28564;53.346;-6.554;2023-02-15T08:38:01;100950.02;;;8.78;55.04
40372;BME280;28564;53.346;-6.554;2023-02-15T08:40:28;100948.59;;;9.14;55.17
40372;BME280;28564;53.346;-6.554;2023-02-15T08:42:56;100946.52;;;9.06;55.32
40372;BME280;28564;53.346;-6.554;2023-02-15T08:45:23;100952.93;;;9.06;55.16
40372;BME280;28564;53.346;-6.554;2023-02-15T08:47:50;100950.23;;;8.97;55.14
40372;BME280;28564;53.346;-6.554;2023-02-15T08:50:18;100953.70;;;8.90;55.34
40372;BME280;28564;53.346;-6.554;2023-02-15T08:52:45;100955.15;;;8.85;55.34
40372;BME280;28564;53.346;-6.554;2023-02-15T08:55:12;100957.27;;;8.85;55.29
40372;BME280;28564;53.346;-6.554;2023-02-15T08:57:39;100961.61;;;8.82;55.33
40372;BME280;28564;53.346;-6.554;2023-02-15T09:00:08;100969.32;;;8.83;55.38
40372;BME280;28564;53.346;-6.554;2023-02-15T09:02:35;100969.20;;;8.87;55.63
40372;BME280;28564;53.346;-6.554;2023-02-15T09:05:02;100969.66;;;9.00;56.00
40372;BME280;28564;53.346;-6.554;2023-02-15T09:07:29;100973.10;;;9.18;56.28
40372;BME280;28564;53.346;-6.554;2023-02-15T09:09:57;100970.41;;;9.37;56.21
40372;BME280;28564;53.346;-6.554;2023-02-15T09:12:24;100969.53;;;9.19;55.97
40372;BME280;28564;53.346;-6.554;2023-02-15T09:14:51;100975.53;;;9.27;55.71
40372;BME280;28564;53.346;-6.554;2023-02-15T09:17:18;100976.80;;;9.11;55.55
40372;BME280;28564;53.346;-6.554;2023-02-15T09:19:46;100975.79;;;9.35;55.33
40372;BME280;28564;53.346;-6.554;2023-02-15T09:22:13;100981.15;;;9.32;55.01
40372;BME280;28564;53.346;-6.554;2023-02-15T09:24:40;100986.12;;;9.28;54.87
40372;BME280;28564;53.346;-6.554;2023-02-15T09:27:08;100984.59;;;9.01;55.04
40372;BME280;28564;53.346;-6.554;2023-02-15T09:29:35;100985.02;;;9.53;55.19
40372;BME280;28564;53.346;-6.554;2023-02-15T09:32:03;100981.70;;;9.52;55.29
40372;BME280;28564;53.346;-6.554;2023-02-15T09:34:30;100984.10;;;9.07;55.36
40372;BME280;28564;53.346;-6.554;2023-02-15T09:36:58;100980.95;;;9.11;55.39
40372;BME280;28564;53.346;-6.554;2023-02-15T09:39:26;100982.04;;;9.17;55.45
40372;BME280;28564;53.346;-6.554;2023-02-15T09:42:06;100982.84;;;9.21;55.41
40372;BME280;28564;53.346;-6.554;2023-02-15T09:44:46;100982.39;;;9.75;55.37
40372;BME280;28564;53.346;-6.554;2023-02-15T09:47:28;100986.62;;;9.37;55.16
40372;BME280;28564;53.346;-6.554;2023-02-15T09:50:05;100984.20;;;9.41;55.26
40372;BME280;28564;53.346;-6.554;2023-02-15T09:52:41;100988.59;;;9.44;55.29
40372;BME280;28564;53.346;-6.554;2023-02-15T09:55:24;100981.44;;;10.02;55.23
40372;BME280;28564;53.346;-6.554;2023-02-15T09:58:01;100982.75;;;9.59;55.24
40372;BME280;28564;53.346;-6.554;2023-02-15T10:04:17;100985.01;;;9.72;54.30
40372;BME280;28564;53.346;-6.554;2023-02-15T10:06:57;100985.58;;;9.79;54.18
40372;BME280;28564;53.346;-6.554;2023-02-15T10:09:36;100990.32;;;10.06;54.21
40372;BME280;28564;53.346;-6.554;2023-02-15T10:12:27;100988.99;;;10.14;54.39
40372;BME280;28564;53.346;-6.554;2023-02-15T10:15:10;100992.97;;;10.53;54.27
40372;BME280;28564;53.346;-6.554;2023-02-15T10:17:52;100992.39;;;10.35;54.23
40372;BME280;28564;53.346;-6.554;2023-02-15T10:20:35;100994.38;;;10.27;54.00
40372;BME280;28564;53.346;-6.554;2023-02-15T10:23:15;100989.52;;;10.65;53.91
40372;BME280;28564;53.346;-6.554;2023-02-15T10:25:52;100996.03;;;10.55;53.87
40372;BME280;28564;53.346;-6.554;2023-02-15T10:28:27;100998.64;;;10.68;53.73
40372;BME280;28564;53.346;-6.554;2023-02-15T10:31:04;100995.85;;;10.63;53.59
40372;BME280;28564;53.346;-6.554;2023-02-15T10:33:38;100997.63;;;11.02;53.09
40372;BME280;28564;53.346;-6.554;2023-02-15T10:36:16;100998.84;;;11.08;53.17
40372;BME280;28564;53.346;-6.554;2023-02-15T10:38:54;101001.72;;;11.23;53.04
40372;BME280;28564;53.346;-6.554;2023-02-15T10:41:34;100999.42;;;11.39;52.75
40372;BME280;28564;53.346;-6.554;2023-02-15T10:44:24;100999.63;;;11.29;52.54
40372;BME280;28564;53.346;-6.554;2023-02-15T10:47:05;101008.39;;;11.33;52.37
40372;BME280;28564;53.346;-6.554;2023-02-15T10:49:46;101008.35;;;11.49;52.23
40372;BME280;28564;53.346;-6.554;2023-02-15T10:52:26;101011.43;;;11.30;52.24
40372;BME280;28564;53.346;-6.554;2023-02-15T10:55:04;101014.13;;;11.64;51.97
40372;BME280;28564;53.346;-6.554;2023-02-15T10:57:44;101007.90;;;11.91;51.80
40372;BME280;28564;53.346;-6.554;2023-02-15T11:00:18;101015.20;;;11.54;51.07
40372;BME280;28564;53.346;-6.554;2023-02-15T11:03:05;101013.69;;;11.82;51.35
40372;BME280;28564;53.346;-6.554;2023-02-15T11:05:43;101020.17;;;11.68;51.54
40372;BME280;28564;53.346;-6.554;2023-02-15T11:08:13;101018.37;;;11.79;50.87
40372;BME280;28564;53.346;-6.554;2023-02-15T11:10:43;101016.09;;;11.81;51.13
40372;BME280;28564;53.346;-6.554;2023-02-15T11:13:14;101012.47;;;12.10;50.87
40372;BME280;28564;53.346;-6.554;2023-02-15T11:15:47;101010.52;;;11.89;50.69
40372;BME280;28564;53.346;-6.554;2023-02-15T11:18:24;101013.76;;;11.94;50.16
40372;BME280;28564;53.346;-6.554;2023-02-15T11:20:55;101009.96;;;11.90;49.95
40372;BME280;28564;53.346;-6.554;2023-02-15T11:23:25;101007.37;;;11.86;49.96
40372;BME280;28564;53.346;-6.554;2023-02-15T11:25:57;101007.23;;;11.83;50.29
40372;BME280;28564;53.346;-6.554;2023-02-15T11:28:30;101013.14;;;11.83;50.12
40372;BME280;28564;53.346;-6.554;2023-02-15T11:31:02;101012.51;;;11.84;50.29
40372;BME280;28564;53.346;-6.554;2023-02-15T11:33:39;101013.71;;;11.83;50.31
40372;BME280;28564;53.346;-6.554;2023-02-15T11:36:14;101012.66;;;11.82;50.42
40372;BME280;28564;53.346;-6.554;2023-02-15T11:38:42;101012.41;;;11.89;49.84
40372;BME280;28564;53.346;-6.554;2023-02-15T11:45:41;101008.81;;;12.30;50.16
40372;BME280;28564;53.346;-6.554;2023-02-15T11:48:11;101014.03;;;12.09;49.14
40372;BME280;28564;53.346;-6.554;2023-02-15T11:50:39;101020.81;;;12.39;48.52
40372;BME280;28564;53.346;-6.554;2023-02-15T12:11:17;101025.74;;;12.47;48.53
40372;BME280;28564;53.346;-6.554;2023-02-15T12:13:55;101030.00;;;11.47;48.07
40372;BME280;28564;53.346;-6.554;2023-02-15T12:16:21;101026.24;;;11.47;46.93
40372;BME280;28564;53.346;-6.554;2023-02-15T12:18:50;101032.29;;;12.94;45.59
40372;BME280;28564;53.346;-6.554;2023-02-15T12:21:26;101028.64;;;12.77;45.65
40372;BME280;28564;53.346;-6.554;2023-02-15T12:23:55;101031.96;;;12.42;46.53
40372;BME280;28564;53.346;-6.554;2023-02-15T12:26:26;101029.98;;;12.45;46.95
40372;BME280;28564;53.346;-6.554;2023-02-15T12:28:55;101022.26;;;12.33;47.18
40372;BME280;28564;53.346;-6.554;2023-02-15T12:31:26;101022.10;;;12.15;47.55
40372;BME280;28564;53.346;-6.554;2023-02-15T12:33:57;101025.53;;;12.02;47.59
40372;BME280;28564;53.346;-6.554;2023-02-15T12:36:27;101021.31;;;11.91;47.67
40372;BME280;28564;53.346;-6.554;2023-02-15T12:39:16;101025.91;;;11.84;47.47
40372;BME280;28564;53.346;-6.554;2023-02-15T12:41:46;101028.41;;;11.75;47.06
40372;BME280;28564;53.346;-6.554;2023-02-15T12:44:18;101026.89;;;11.76;47.53
40372;BME280;28564;53.346;-6.554;2023-02-15T12:46:57;101017.90;;;12.04;47.48
40372;BME280;28564;53.346;-6.554;2023-02-15T12:49:26;101018.83;;;12.33;46.57
40372;BME280;28564;53.346;-6.554;2023-02-15T12:51:55;101025.77;;;13.21;45.54
40372;BME280;28564;53.346;-6.554;2023-02-15T12:54:35;101013.96;;;13.69;44.76
40372;BME280;28564;53.346;-6.554;2023-02-15T12:57:23;101008.65;;;14.65;41.26
40372;BME280;28564;53.346;-6.554;2023-02-15T12:59:52;101003.36;;;15.43;40.31
40372;BME280;28564;53.346;-6.554;2023-02-15T13:02:24;100997.86;;;15.60;39.19
40372;BME280;28564;53.346;-6.554;2023-02-15T13:04:53;100996.66;;;15.75;38.41
40372;BME280;28564;53.346;-6.554;2023-02-15T13:07:20;101000.99;;;15.95;38.08
40372;BME280;28564;53.346;-6.554;2023-02-15T13:09:49;100994.70;;;15.82;37.91
40372;BME280;28564;53.346;-6.554;2023-02-15T13:12:21;100992.43;;;15.81;38.22
40372;BME280;28564;53.346;-6.554;2023-02-15T13:14:51;100995.19;;;16.13;37.88
40372;BME280;28564;53.346;-6.554;2023-02-15T13:17:24;100990.37;;;16.21;36.62
40372;BME280;28564;53.346;-6.554;2023-02-15T13:19:53;100991.30;;;16.31;36.57
40372;BME280;28564;53.346;-6.554;2023-02-15T13:22:22;100993.73;;;16.22;36.25
40372;BME280;28564;53.346;-6.554;2023-02-15T13:24:56;100994.77;;;16.56;35.87
40372;BME280;28564;53.346;-6.554;2023-02-15T13:27:35;100985.14;;;16.15;35.97